Time;durP1;ratioP1;P1;durP2;ratioP2;P2;SDS_P1;SDS_P2;PMS_P1;PMS_P2;Temp;Humidity;BMP_temperature;BMP_pressure;BME280_temperature;BME280_humidity;BME280_pressure;Samples;Min_cycle;Max_cycle;Signal;HPM_P1;HPM_P2
2022/01/17 00:01:58;;;;;;;12.98;2.38;;;6.00;99.90;;;;;;4772087;30;20054;-82
2022/01/17 00:04:24;;;;;;;19.52;2.80;;;5.90;99.90;;;;;;4771477;30;20055;-83
2022/01/17 00:06:50;;;;;;;19.10;2.67;;;5.90;99.90;;;;;;4786673;30;20051;-82
2022/01/17 00:09:15;;;;;;;19.20;3.22;;;5.80;99.90;;;;;;4771568;30;20066;-83
2022/01/17 00:11:44;;;;;;;12.32;2.28;;;5.70;99.90;;;;;;4771725;30;20479;-82
2022/01/17 00:14:14;;;;;;;14.68;2.30;;;5.70;99.90;;;;;;4786568;30;20065;-83
2022/01/17 00:16:44;;;;;;;16.20;2.55;;;5.60;99.90;;;;;;4757620;30;20062;-83
2022/01/17 00:21:48;;;;;;;18.92;2.20;;;5.60;99.90;;;;;;4786632;30;20048;-83
2022/01/17 00:24:14;;;;;;;18.15;2.42;;;5.50;99.90;;;;;;4756968;30;20414;-83
2022/01/17 00:26:40;;;;;;;13.55;2.35;;;5.50;99.90;;;;;;4786794;30;20051;-83
2022/01/17 00:29:05;;;;;;;17.50;2.58;;;5.50;99.90;;;;;;4786753;30;20094;-82
2022/01/17 00:31:31;;;;;;;17.52;2.20;;;5.60;99.90;;;;;;4771197;30;20052;-83
2022/01/17 00:33:57;;;;;;;14.95;2.00;;;5.60;99.90;;;;;;4771742;30;20459;-83
2022/01/17 00:36:23;;;;;;;15.30;3.38;;;5.70;99.90;;;;;;4771247;30;20073;-83
2022/01/17 00:38:49;;;;;;;18.40;2.38;;;5.70;99.90;;;;;;4786698;30;20482;-83
2022/01/17 00:41:14;;;;;;;16.92;2.58;;;5.70;99.90;;;;;;4755748;30;20090;-83
2022/01/17 00:43:40;;;;;;;18.90;2.50;;;5.70;99.90;;;;;;4771766;30;20142;-83
2022/01/17 00:46:06;;;;;;;15.07;2.42;;;5.70;99.90;;;;;;4786186;30;20498;-83
2022/01/17 00:48:31;;;;;;;19.08;2.65;;;5.80;99.90;;;;;;4786062;30;20051;-83
2022/01/17 00:50:57;;;;;;;12.73;2.22;;;5.70;99.90;;;;;;4785975;29;20105;-83
2022/01/17 00:53:22;;;;;;;12.40;2.38;;;5.80;99.90;;;;;;4771243;30;20043;-83
2022/01/17 00:55:48;;;;;;;21.85;3.10;;;6.00;99.90;;;;;;4786228;30;20514;-83
2022/01/17 00:58:14;;;;;;;15.85;2.60;;;5.80;99.90;;;;;;4785907;30;20084;-84
2022/01/17 01:00:41;;;;;;;14.65;2.60;;;5.90;99.90;;;;;;4786256;30;20055;-82
2022/01/17 01:03:06;;;;;;;20.75;2.50;;;5.80;99.90;;;;;;4756726;30;20062;-83
2022/01/17 01:05:32;;;;;;;16.02;2.60;;;5.80;99.90;;;;;;4771036;30;20047;-82
2022/01/17 01:07:58;;;;;;;21.27;2.50;;;5.80;99.90;;;;;;4771417;30;20190;-82
2022/01/17 01:10:24;;;;;;;18.95;2.45;;;5.70;99.90;;;;;;4770795;30;20119;-82
2022/01/17 01:12:50;;;;;;;18.65;2.60;;;5.70;99.90;;;;;;4771041;30;20550;-82
2022/01/17 01:15:33;;;;;;;18.25;2.80;;;5.70;99.90;;;;;;4786887;29;20213;-85
2022/01/17 01:18:01;;;;;;;16.73;2.55;;;5.80;99.90;;;;;;4787282;29;20143;-82
2022/01/17 01:28:20;;;;;;;16.90;2.65;;;5.70;99.90;;;;;;4773027;30;20411;-83
2022/01/17 01:30:50;;;;;;;12.13;2.22;;;5.70;99.90;;;;;;4756340;30;20051;-82
2022/01/17 01:33:23;;;;;;;20.55;3.17;;;5.70;99.90;;;;;;4771355;30;20526;-83
2022/01/17 01:35:50;;;;;;;19.55;2.70;;;5.80;99.90;;;;;;4772124;30;20059;-83
2022/01/17 01:38:15;;;;;;;15.88;2.55;;;5.70;99.90;;;;;;4771189;30;20388;-83
2022/01/17 01:40:41;;;;;;;18.20;2.60;;;5.70;99.90;;;;;;4770267;30;20070;-82
2022/01/17 01:43:07;;;;;;;20.83;2.53;;;5.70;99.90;;;;;;4771028;30;20506;-83
2022/01/17 01:45:33;;;;;;;14.05;2.65;;;5.70;99.90;;;;;;4785416;30;20055;-83
2022/01/17 01:47:58;;;;;;;17.13;2.75;;;5.70;99.90;;;;;;4771123;30;20061;-83
2022/01/17 01:50:24;;;;;;;22.73;3.03;;;5.70;99.90;;;;;;4755581;30;20051;-82
2022/01/17 01:52:50;;;;;;;14.90;2.22;;;5.60;99.90;;;;;;4785216;30;20414;-83
2022/01/17 01:55:20;;;;;;;13.18;2.38;;;5.60;99.90;;;;;;4770771;30;20059;-83
2022/01/17 01:57:46;;;;;;;12.80;2.20;;;5.60;99.90;;;;;;4756535;30;20067;-83
2022/01/17 02:00:12;;;;;;;17.95;3.42;;;5.60;99.90;;;;;;4770963;30;20077;-83
2022/01/17 02:02:38;;;;;;;18.30;3.03;;;5.50;99.90;;;;;;4772841;30;20410;-83
2022/01/17 02:05:04;;;;;;;20.15;2.72;;;5.50;99.90;;;;;;4774460;30;20055;-83
2022/01/17 02:07:30;;;;;;;17.90;2.17;;;5.50;99.90;;;;;;4758980;30;20411;-83
2022/01/17 02:09:56;;;;;;;24.88;3.53;;;5.40;99.90;;;;;;4774005;30;20055;-83
2022/01/17 02:12:22;;;;;;;16.30;2.90;;;5.30;99.90;;;;;;4789190;30;20054;-83
2022/01/17 02:14:48;;;;;;;18.45;2.47;;;5.20;99.90;;;;;;4773554;30;20043;-83
2022/01/17 02:17:14;;;;;;;18.25;2.65;;;5.30;99.90;;;;;;4774129;30;20090;-83
2022/01/17 02:19:45;;;;;;;20.23;2.60;;;5.20;99.90;;;;;;4758526;30;20087;-83
2022/01/17 02:22:12;;;;;;;18.77;2.95;;;5.20;99.90;;;;;;4788886;30;20055;-83
2022/01/17 02:24:38;;;;;;;19.42;2.58;;;5.20;99.90;;;;;;4788423;30;20047;-83
2022/01/17 02:27:04;;;;;;;13.98;2.55;;;5.20;99.90;;;;;;4759132;30;20547;-83
2022/01/17 02:29:30;;;;;;;18.83;2.78;;;5.10;99.90;;;;;;4773402;30;20078;-83
2022/01/17 02:31:56;;;;;;;24.73;3.47;;;5.20;99.90;;;;;;4773604;30;20059;-83
2022/01/17 02:34:21;;;;;;;17.90;2.70;;;5.10;99.90;;;;;;4773522;30;20058;-83
2022/01/17 02:36:47;;;;;;;21.33;2.45;;;5.20;99.90;;;;;;4788209;30;20769;-83
2022/01/17 02:39:13;;;;;;;21.10;2.67;;;5.20;99.90;;;;;;4773730;30;20047;-83
2022/01/17 02:41:40;;;;;;;18.10;2.58;;;5.10;99.90;;;;;;4773088;30;20072;-83
2022/01/17 02:44:06;;;;;;;19.98;2.90;;;5.20;99.90;;;;;;4759011;30;20059;-83
2022/01/17 02:46:32;;;;;;;21.35;2.65;;;5.10;99.90;;;;;;4788725;30;20142;-83
2022/01/17 02:49:00;;;;;;;19.73;3.40;;;5.10;99.90;;;;;;4773713;30;20193;-82
2022/01/17 02:51:26;;;;;;;16.02;2.08;;;5.10;99.90;;;;;;4758638;30;20055;-83
2022/01/17 02:53:52;;;;;;;16.73;2.33;;;5.20;99.90;;;;;;4758248;30;20536;-83
2022/01/17 02:56:18;;;;;;;18.33;2.72;;;5.10;99.90;;;;;;4773717;30;20051;-83
2022/01/17 02:58:44;;;;;;;20.88;2.85;;;5.10;99.90;;;;;;4789100;30;20101;-82
2022/01/17 03:01:30;;;;;;;19.77;2.65;;;5.10;99.90;;;;;;4773543;30;20403;-83
2022/01/17 03:03:56;;;;;;;20.67;2.67;;;5.30;99.90;;;;;;4787223;30;20067;-83
2022/01/17 03:06:22;;;;;;;17.35;2.55;;;5.20;99.90;;;;;;4788141;30;20537;-83
2022/01/17 03:08:47;;;;;;;18.95;2.70;;;5.20;99.90;;;;;;4772658;30;20082;-83
2022/01/17 03:11:16;;;;;;;15.75;2.50;;;5.30;99.90;;;;;;4772958;30;20047;-83
2022/01/17 03:13:41;;;;;;;14.40;2.42;;;5.40;99.90;;;;;;4772410;30;20453;-83
2022/01/17 03:16:13;;;;;;;20.20;3.15;;;5.40;99.90;;;;;;4773005;30;20116;-83
2022/01/17 03:18:41;;;;;;;14.45;2.47;;;5.40;99.90;;;;;;4773230;30;20525;-83
2022/01/17 03:21:08;;;;;;;20.70;2.47;;;5.50;99.90;;;;;;4787641;30;20108;-83
2022/01/17 03:23:34;;;;;;;18.98;2.20;;;5.40;99.90;;;;;;4772985;30;20437;-83
2022/01/17 03:26:00;;;;;;;21.85;2.78;;;5.40;99.90;;;;;;4758131;30;20053;-83
2022/01/17 03:28:26;;;;;;;18.40;2.70;;;5.50;99.90;;;;;;4787862;30;20055;-83
2022/01/17 03:30:52;;;;;;;16.55;2.88;;;5.50;99.90;;;;;;4771920;30;20047;-83
2022/01/17 03:33:18;;;;;;;17.75;2.85;;;5.50;99.90;;;;;;4772647;30;20063;-83
2022/01/17 03:35:44;;;;;;;22.52;2.78;;;5.50;99.90;;;;;;4786974;30;20135;-83
2022/01/17 03:38:12;;;;;;;16.60;2.38;;;5.50;99.90;;;;;;4757968;30;20051;-83
2022/01/17 03:40:37;;;;;;;18.27;3.28;;;5.50;99.90;;;;;;4772024;30;20074;-85
2022/01/17 03:43:04;;;;;;;23.08;3.47;;;5.50;99.90;;;;;;4772769;30;20055;-83
2022/01/17 03:45:29;;;;;;;13.60;2.35;;;5.60;99.90;;;;;;4757789;30;20055;-83
2022/01/17 03:47:55;;;;;;;19.08;2.20;;;5.60;99.90;;;;;;4786787;30;20047;-83
2022/01/17 03:50:21;;;;;;;18.95;2.45;;;5.60;99.90;;;;;;4757475;30;20055;-83
2022/01/17 03:52:47;;;;;;;15.68;2.85;;;5.60;99.90;;;;;;4786728;30;20054;-83
2022/01/17 03:55:16;;;;;;;20.40;3.00;;;5.60;99.90;;;;;;4787353;30;20062;-83
2022/01/17 03:57:43;;;;;;;16.17;2.20;;;5.70;99.90;;;;;;4757421;30;20067;-83
2022/01/17 04:00:13;;;;;;;16.33;2.00;;;5.80;99.90;;;;;;4743177;30;20059;-83
2022/01/17 04:02:39;;;;;;;20.30;2.83;;;5.80;99.90;;;;;;4773047;30;20067;-83
2022/01/17 04:05:05;;;;;;;18.95;3.10;;;5.80;99.90;;;;;;4786851;30;20130;-83
2022/01/17 04:07:31;;;;;;;13.40;2.65;;;5.80;99.90;;;;;;4772086;30;20058;-82
2022/01/17 04:09:57;;;;;;;15.18;2.10;;;5.80;99.90;;;;;;4786310;30;20055;-83
2022/01/17 04:12:22;;;;;;;13.77;2.25;;;5.80;99.90;;;;;;4757346;30;20047;-83
2022/01/17 04:14:53;;;;;;;17.05;2.97;;;5.70;99.90;;;;;;4786418;30;20059;-83
2022/01/17 04:17:18;;;;;;;;;;;5.70;99.90;;;;;;4787347;30;20094;-83
2022/01/17 04:19:48;;;;;;;18.27;2.50;;;5.70;99.90;;;;;;4786562;30;20401;-83
2022/01/17 04:22:14;;;;;;;14.05;2.10;;;5.70;99.90;;;;;;4786880;30;20495;-84
2022/01/17 04:24:39;;;;;;;15.45;2.20;;;5.70;99.90;;;;;;4786016;30;20086;-83
2022/01/17 04:27:05;;;;;;;19.50;2.33;;;5.60;99.90;;;;;;4786201;30;20418;-83
2022/01/17 04:29:30;;;;;;;13.32;2.45;;;5.60;99.90;;;;;;4786787;30;20054;-83
2022/01/17 04:31:56;;;;;;;19.27;2.50;;;5.60;99.90;;;;;;4786134;30;20040;-83
2022/01/17 04:34:22;;;;;;;17.38;2.47;;;5.50;99.90;;;;;;4786991;30;20047;-83
2022/01/17 04:36:47;;;;;;;17.00;2.28;;;5.50;99.90;;;;;;4756812;30;20494;-84
2022/01/17 04:39:16;;;;;;;16.83;2.40;;;5.50;99.90;;;;;;4757090;30;20079;-83
2022/01/17 04:41:42;;;;;;;15.60;2.20;;;5.60;99.90;;;;;;4757261;30;20059;-83
2022/01/17 04:46:52;;;;;;;12.52;2.00;;;5.60;99.90;;;;;;4787425;29;20063;-83
2022/01/17 04:49:18;;;;;;;23.33;2.67;;;5.70;99.90;;;;;;4787703;29;20065;-83
2022/01/17 04:51:45;;;;;;;13.25;2.20;;;5.80;99.90;;;;;;4786307;30;20384;-83
2022/01/17 04:56:40;;;;;;;12.57;2.17;;;5.90;99.90;;;;;;4771749;30;20062;-83
2022/01/17 04:59:05;;;;;;;16.85;2.80;;;6.00;99.90;;;;;;4785801;30;20055;-83
2022/01/17 05:01:31;;;;;;;17.50;2.67;;;6.00;99.90;;;;;;4786204;30;20062;-83
2022/01/17 05:03:56;;;;;;;21.08;3.17;;;6.10;99.90;;;;;;4786846;29;20055;-83
2022/01/17 05:06:22;;;;;;;18.38;2.78;;;6.10;99.90;;;;;;4786302;30;20051;-83
2022/01/17 05:08:48;;;;;;;22.33;3.47;;;6.10;99.90;;;;;;4786447;30;20055;-83
2022/01/17 05:11:13;;;;;;;19.10;3.55;;;6.20;99.90;;;;;;4786796;29;20386;-83
2022/01/17 05:13:45;;;;;;;18.58;2.70;;;6.30;99.90;;;;;;4786066;30;20047;-83
2022/01/17 05:16:14;;;;;;;22.42;2.83;;;6.20;99.90;;;;;;4771490;30;20066;-83
2022/01/17 05:21:05;;;;;;;15.73;2.70;;;6.30;99.90;;;;;;4770739;30;20055;-83
2022/01/17 05:23:31;;;;;;;17.77;2.95;;;6.40;99.90;;;;;;4786196;30;20124;-84
2022/01/17 05:25:57;;;;;;;18.65;3.40;;;6.40;99.90;;;;;;4785560;30;20112;-83
2022/01/17 05:28:22;;;;;;;17.80;3.05;;;6.40;99.90;;;;;;4786987;29;20055;-83
2022/01/17 05:30:48;;;;;;;20.30;3.70;;;6.50;99.90;;;;;;4770752;30;20047;-83
2022/01/17 05:33:13;;;;;;;26.67;3.90;;;6.40;99.90;;;;;;4770740;30;20398;-83
2022/01/17 05:35:39;;;;;;;17.65;3.35;;;6.50;99.90;;;;;;4771059;30;20055;-84
2022/01/17 05:38:05;;;;;;;18.42;3.40;;;6.40;99.90;;;;;;4788604;30;20051;-83
2022/01/17 05:40:30;;;;;;;20.33;3.00;;;6.50;99.90;;;;;;4774538;30;20055;-83
2022/01/17 05:42:56;;;;;;;21.25;3.13;;;6.50;99.90;;;;;;4789138;30;20063;-84
2022/01/17 05:45:22;;;;;;;25.50;3.90;;;6.50;99.90;;;;;;4789621;30;20047;-83
2022/01/17 05:47:47;;;;;;;19.02;3.35;;;6.50;99.90;;;;;;4789368;30;20056;-83
2022/01/17 05:50:13;;;;;;;20.08;3.78;;;6.60;99.90;;;;;;4788726;30;20457;-84
2022/01/17 05:52:39;;;;;;;21.15;3.78;;;6.50;99.90;;;;;;4774326;30;20051;-82
2022/01/17 05:55:06;;;;;;;19.30;3.53;;;6.60;99.90;;;;;;4788627;30;20063;-83
2022/01/17 05:57:32;;;;;;;21.75;3.92;;;6.60;99.90;;;;;;4789537;30;20066;-84
2022/01/17 05:59:59;;;;;;;16.20;3.65;;;6.60;99.90;;;;;;4759742;30;20051;-88
2022/01/17 06:02:25;;;;;;;12.70;3.15;;;6.60;99.90;;;;;;4789295;30;20063;-82
2022/01/17 06:04:50;;;;;;;22.35;3.53;;;6.60;99.90;;;;;;4790271;29;20108;-82
2022/01/17 06:07:16;;;;;;;16.58;3.65;;;6.60;99.90;;;;;;4774159;30;20094;-82
2022/01/17 06:09:42;;;;;;;18.48;4.28;;;6.60;99.90;;;;;;4790452;29;20074;-83
2022/01/17 06:12:08;;;;;;;21.00;3.28;;;6.60;99.90;;;;;;4789736;29;20058;-83
2022/01/17 06:14:34;;;;;;;20.85;3.10;;;6.70;99.90;;;;;;4774175;30;20058;-82
2022/01/17 06:16:59;;;;;;;14.32;3.30;;;6.70;99.90;;;;;;4790269;29;20058;-83
2022/01/17 06:19:25;;;;;;;17.50;3.30;;;6.60;99.90;;;;;;4790194;29;20161;-83
2022/01/17 06:21:51;;;;;;;20.92;4.25;;;6.60;99.90;;;;;;4788915;30;20094;-83
2022/01/17 06:24:16;;;;;;;20.25;3.95;;;6.60;99.90;;;;;;4758636;30;20047;-83
2022/01/17 06:26:42;;;;;;;19.88;3.92;;;6.60;99.90;;;;;;4774022;30;20051;-83
2022/01/17 06:29:10;;;;;;;18.60;3.95;;;6.60;99.90;;;;;;4773220;30;20058;-82
2022/01/17 06:31:36;;;;;;;24.02;3.53;;;6.60;99.90;;;;;;4773353;30;20059;-83
2022/01/17 06:34:02;;;;;;;21.05;3.72;;;6.50;99.90;;;;;;4788848;30;20066;-84
2022/01/17 06:36:28;;;;;;;23.50;4.70;;;6.60;99.90;;;;;;4773850;30;20055;-83
2022/01/17 06:38:54;;;;;;;21.05;4.18;;;6.70;99.90;;;;;;4773716;30;20406;-83
2022/01/17 06:41:19;;;;;;;23.02;3.97;;;6.70;99.90;;;;;;4787829;30;20469;-83
2022/01/17 06:43:45;;;;;;;17.20;3.83;;;6.70;99.90;;;;;;4789395;29;20485;-81
2022/01/17 06:46:11;;;;;;;20.02;4.55;;;6.70;99.90;;;;;;4789023;30;20447;-81
2022/01/17 06:48:37;;;;;;;22.45;4.38;;;6.70;99.90;;;;;;4788828;29;20142;-83
2022/01/17 06:51:02;;;;;;;21.15;4.13;;;6.70;99.90;;;;;;4789418;30;20097;-83
2022/01/17 06:53:29;;;;;;;24.63;4.40;;;6.70;99.90;;;;;;4758014;30;20090;-83
2022/01/17 06:55:55;;;;;;;23.77;4.00;;;6.70;99.90;;;;;;4788332;30;20455;-83
2022/01/17 06:58:21;;;;;;;23.25;4.30;;;6.70;99.90;;;;;;4788816;29;20137;-83
2022/01/17 07:00:46;;;;;;;25.77;3.70;;;6.70;99.90;;;;;;4788422;30;20070;-83
2022/01/17 07:03:12;;;;;;;23.23;3.78;;;6.70;99.90;;;;;;4787924;30;20079;-83
2022/01/17 07:05:38;;;;;;;23.65;3.90;;;6.70;99.90;;;;;;4788213;30;20069;-83
2022/01/17 07:08:03;;;;;;;24.67;4.18;;;6.70;99.90;;;;;;4787971;30;20051;-83
2022/01/17 07:10:29;;;;;;;27.20;4.55;;;6.70;99.90;;;;;;4758237;30;20059;-83
2022/01/17 07:12:55;;;;;;;24.23;4.18;;;6.70;99.90;;;;;;4787901;30;20087;-83
2022/01/17 07:15:21;;;;;;;22.48;4.25;;;6.70;99.90;;;;;;4787526;30;20047;-84
2022/01/17 07:17:47;;;;;;;28.60;4.10;;;6.80;99.90;;;;;;4773356;30;20100;-83
2022/01/17 07:20:12;;;;;;;31.48;4.57;;;6.70;99.90;;;;;;4787665;30;20134;-84
2022/01/17 07:22:38;;;;;;;24.77;4.00;;;6.80;99.90;;;;;;4787856;30;20460;-84
2022/01/17 07:25:04;;;;;;;29.40;4.65;;;6.70;99.90;;;;;;4787614;30;20407;-84
2022/01/17 07:27:30;;;;;;;22.35;4.13;;;6.70;99.90;;;;;;4787219;30;20484;-83
2022/01/17 07:29:56;;;;;;;28.00;4.03;;;6.80;99.90;;;;;;4787810;30;20044;-83
2022/01/17 07:32:22;;;;;;;21.55;3.60;;;6.90;99.90;;;;;;4788290;29;20155;-83
2022/01/17 07:34:48;;;;;;;31.27;4.22;;;6.70;99.90;;;;;;4772766;30;20051;-82
2022/01/17 07:37:14;;;;;;;26.60;4.57;;;6.70;99.90;;;;;;4787175;30;20414;-83
2022/01/17 07:39:39;;;;;;;30.65;4.43;;;6.70;99.90;;;;;;4772581;30;20147;-83
2022/01/17 07:42:06;;;;;;;21.70;4.00;;;6.70;99.90;;;;;;4787043;30;20146;-83
2022/01/17 07:44:33;;;;;;;25.20;4.28;;;6.70;99.90;;;;;;4787141;30;20102;-82
2022/01/17 07:47:01;;;;;;;30.85;4.70;;;6.70;99.90;;;;;;4787620;30;20547;-82
2022/01/17 07:49:27;;;;;;;28.10;4.43;;;6.70;99.90;;;;;;4787162;30;20431;-83
2022/01/17 07:52:01;;;;;;;28.75;4.13;;;6.70;99.90;;;;;;4757580;30;20086;-83
2022/01/17 07:54:27;;;;;;;22.73;3.95;;;6.70;99.90;;;;;;4787991;29;20391;-83
2022/01/17 07:56:53;;;;;;;26.65;3.78;;;6.70;99.90;;;;;;4787397;30;20410;-83
2022/01/17 07:59:19;;;;;;;29.25;4.45;;;6.70;99.90;;;;;;4785863;30;20058;-83
2022/01/17 08:01:45;;;;;;;32.05;4.22;;;6.80;99.90;;;;;;4772425;30;20057;-82
2022/01/17 08:04:10;;;;;;;26.65;4.15;;;6.80;99.90;;;;;;4788484;29;20483;-83
2022/01/17 08:06:38;;;;;;;28.13;4.40;;;6.80;99.90;;;;;;4786886;30;20061;-83
2022/01/17 08:09:06;;;;;;;30.48;3.80;;;6.80;99.90;;;;;;4787248;30;20098;-83
2022/01/17 08:11:32;;;;;;;30.63;4.80;;;6.80;99.90;;;;;;4786409;30;20091;-83
2022/01/17 08:13:57;;;;;;;32.75;4.28;;;6.90;99.90;;;;;;4772429;30;20101;-82
2022/01/17 08:16:23;;;;;;;31.17;4.80;;;6.90;99.90;;;;;;4786416;30;20150;-82
2022/01/17 08:18:50;;;;;;;26.80;4.47;;;7.00;99.90;;;;;;4788244;29;20055;-82
2022/01/17 08:21:15;;;;;;;28.25;4.90;;;7.00;99.90;;;;;;4787288;30;20055;-83
2022/01/17 08:23:41;;;;;;;27.48;4.65;;;7.00;99.90;;;;;;4787703;29;20055;-82
2022/01/17 08:26:07;;;;;;;33.22;4.70;;;7.00;99.90;;;;;;4788159;29;20478;-82
2022/01/17 08:28:33;;;;;;;28.95;5.28;;;7.10;99.90;;;;;;4787672;29;20062;-82
2022/01/17 08:30:58;;;;;;;32.33;4.57;;;7.20;99.90;;;;;;4788078;29;20138;-82
2022/01/17 08:33:24;;;;;;;37.67;4.70;;;7.10;99.90;;;;;;4786294;30;20062;-83
2022/01/17 08:35:49;;;;;;;31.15;5.03;;;7.20;99.90;;;;;;4786580;30;20051;-82
2022/01/17 08:38:15;;;;;;;28.10;4.18;;;7.20;99.90;;;;;;4787837;30;20376;-82
2022/01/17 08:40:41;;;;;;;33.25;4.57;;;7.20;99.90;;;;;;4787262;29;20584;-82
2022/01/17 08:43:07;;;;;;;32.97;5.00;;;7.20;99.90;;;;;;4787904;29;20055;-82
2022/01/17 08:45:33;;;;;;;28.42;4.57;;;7.30;99.90;;;;;;4786474;30;20047;-83
2022/01/17 08:47:59;;;;;;;33.03;4.78;;;7.30;99.90;;;;;;4772092;30;20118;-83
2022/01/17 08:50:24;;;;;;;36.05;4.25;;;7.30;99.90;;;;;;4786023;30;20423;-81
2022/01/17 08:52:50;;;;;;;37.65;4.95;;;7.40;99.90;;;;;;4786881;30;20059;-80
2022/01/17 08:55:16;;;;;;;27.55;3.78;;;7.40;99.90;;;;;;4787542;30;20142;-83
2022/01/17 08:57:42;;;;;;;36.97;4.85;;;7.50;99.90;;;;;;4786332;30;20077;-82
2022/01/17 09:00:10;;;;;;;29.73;4.75;;;7.50;99.90;;;;;;4786705;30;20051;-82
2022/01/17 09:02:36;;;;;;;29.67;4.55;;;7.50;99.90;;;;;;4771400;30;20059;-82
2022/01/17 09:05:02;;;;;;;33.08;4.80;;;7.50;99.90;;;;;;4742358;30;20142;-83
2022/01/17 09:07:27;;;;;;;37.33;4.60;;;7.60;99.90;;;;;;4786054;30;20494;-83
2022/01/17 09:09:53;;;;;;;31.02;4.70;;;7.70;99.90;;;;;;4787545;29;20093;-82
2022/01/17 09:12:18;;;;;;;32.10;5.35;;;7.70;99.90;;;;;;4786953;29;20051;-83
2022/01/17 09:14:44;;;;;;;29.95;4.88;;;7.80;99.90;;;;;;4785731;30;20051;-82
2022/01/17 09:17:10;;;;;;;34.47;4.78;;;7.80;99.90;;;;;;4786408;30;20051;-83
2022/01/17 09:19:36;;;;;;;31.92;4.95;;;7.90;99.90;;;;;;4786990;30;20055;-83
2022/01/17 09:22:03;;;;;;;29.30;4.95;;;7.90;99.90;;;;;;4786519;30;20471;-83
2022/01/17 09:24:28;;;;;;;31.38;4.78;;;8.00;99.90;;;;;;4770888;30;20058;-83
2022/01/17 09:26:54;;;;;;;29.65;4.35;;;8.00;99.90;;;;;;4771273;30;20051;-83
2022/01/17 09:29:20;;;;;;;38.15;4.63;;;8.10;99.90;;;;;;4786219;30;20043;-84
2022/01/17 09:31:45;;;;;;;30.00;4.28;;;8.20;99.90;;;;;;4786777;30;20134;-84
2022/01/17 09:34:11;;;;;;;32.45;4.30;;;8.30;99.90;;;;;;4786214;30;20487;-84
2022/01/17 09:36:37;;;;;;;34.05;5.38;;;8.40;99.90;;;;;;4785446;30;20059;-84
2022/01/17 09:39:04;;;;;;;34.35;4.95;;;8.40;99.90;;;;;;4787113;29;20047;-85
2022/01/17 09:41:31;;;;;;;37.53;5.15;;;8.40;99.90;;;;;;4770893;30;20099;-84
2022/01/17 09:43:57;;;;;;;36.67;5.70;;;8.50;99.90;;;;;;4785845;30;20119;-83
2022/01/17 09:46:26;;;;;;;41.10;5.13;;;8.60;99.90;;;;;;4771133;30;20047;-83
2022/01/17 09:49:00;;;;;;;35.72;5.20;;;8.60;99.90;;;;;;4785355;30;20059;-84
2022/01/17 09:51:41;;;;;;;30.48;5.25;;;8.60;99.90;;;;;;4785701;30;20058;-84
2022/01/17 09:54:07;;;;;;;36.35;5.63;;;8.60;99.90;;;;;;4760122;30;20059;-84
2022/01/17 09:56:33;;;;;;;33.28;5.47;;;8.70;99.90;;;;;;4755938;30;20062;-86
2022/01/17 09:58:59;;;;;;;33.38;5.25;;;8.70;99.90;;;;;;4785969;30;20055;-84
2022/01/17 10:01:25;;;;;;;32.28;4.55;;;8.80;99.90;;;;;;4785826;30;20108;-84
2022/01/17 10:03:56;;;;;;;34.28;4.78;;;8.80;99.90;;;;;;4770741;30;20087;-84
2022/01/17 10:06:23;;;;;;;33.65;5.53;;;8.90;99.90;;;;;;4785692;30;20469;-84
2022/01/17 10:08:48;;;;;;;39.92;5.93;;;9.00;99.90;;;;;;4770452;30;20413;-84
2022/01/17 10:11:16;;;;;;;35.70;5.50;;;9.10;99.90;;;;;;4785414;30;20051;-84
2022/01/17 10:13:45;;;;;;;35.38;5.63;;;9.10;99.90;;;;;;4785494;30;20055;-84
2022/01/17 10:16:12;;;;;;;37.88;5.88;;;9.20;99.90;;;;;;4756288;30;20062;-84
2022/01/17 10:19:00;;;;;;;41.25;5.95;;;9.20;99.90;;;;;;4785410;30;20094;-84
2022/01/17 10:21:36;;;;;;;39.50;4.93;;;9.30;99.90;;;;;;4771106;29;20130;-84
2022/01/17 10:26:58;;;;;;;38.65;5.95;;;9.30;99.90;;;;;;4788747;30;20059;-84
2022/01/17 10:37:16;;;;;;;34.92;5.40;;;9.20;99.90;;;;;;4788767;30;20124;-84
2022/01/17 10:40:15;;;;;;;36.35;6.22;;;9.20;99.90;;;;;;4787904;30;20047;-84
2022/01/17 10:42:47;;;;;;;41.85;6.35;;;9.30;99.90;;;;;;4790492;29;20060;-84
2022/01/17 10:45:15;;;;;;;37.35;5.82;;;9.30;99.90;;;;;;4788492;30;20051;-84
2022/01/17 10:47:43;;;;;;;38.20;5.82;;;9.40;99.90;;;;;;4773782;30;20455;-85
2022/01/17 10:50:30;;;;;;;32.38;5.75;;;9.40;99.90;;;;;;4788470;30;20059;-89
2022/01/17 10:53:00;;;;;;;37.88;5.68;;;9.50;99.90;;;;;;4773475;30;20062;-84
2022/01/17 10:55:26;;;;;;;38.30;6.43;;;9.50;99.90;;;;;;4773714;30;20070;-85
2022/01/17 10:57:56;;;;;;;34.17;5.68;;;9.60;99.90;;;;;;4787335;30;20502;-85
2022/01/17 11:00:28;;;;;;;39.30;6.70;;;9.60;99.90;;;;;;4788342;29;20063;-85
2022/01/17 11:02:56;;;;;;;40.15;6.30;;;9.60;99.90;;;;;;4773064;30;20051;-84
2022/01/17 11:05:22;;;;;;;39.28;6.80;;;9.60;99.90;;;;;;4773587;30;20059;-85
2022/01/17 11:07:52;;;;;;;49.47;7.03;;;9.60;99.90;;;;;;4787676;30;20501;-85
2022/01/17 11:10:31;;;;;;;41.28;6.78;;;9.60;99.90;;;;;;4773974;30;20059;-85
2022/01/17 11:12:58;;;;;;;38.80;6.65;;;9.60;99.90;;;;;;4788880;29;20059;-85
2022/01/17 11:15:24;;;;;;;40.17;6.97;;;9.50;99.90;;;;;;4773549;30;20632;-85
2022/01/17 11:17:53;;;;;;;40.53;6.57;;;9.50;99.90;;;;;;4788905;30;20410;-85
2022/01/17 11:20:24;;;;;;;43.55;6.45;;;9.50;99.90;;;;;;4788165;30;20054;-84
2022/01/17 11:22:51;;;;;;;45.60;6.80;;;9.60;99.90;;;;;;4787840;30;20050;-84
2022/01/17 11:25:22;;;;;;;40.42;6.80;;;9.60;99.90;;;;;;4773175;30;20059;-84
2022/01/17 11:27:47;;;;;;;;;;;9.60;99.90;;;;;;4773509;30;20153;-85
2022/01/17 11:30:15;;;;;;;37.28;6.63;;;9.60;99.90;;;;;;4802949;29;20446;-84
2022/01/17 11:32:41;;;;;;;38.17;6.38;;;9.60;99.90;;;;;;4789071;30;20129;-85
2022/01/17 11:35:07;;;;;;;38.97;6.55;;;9.60;99.90;;;;;;4787616;29;20051;-85
2022/01/17 11:37:37;;;;;;;45.78;6.50;;;9.60;99.90;;;;;;4773117;30;20445;-85
2022/01/17 11:40:04;;;;;;;40.25;6.50;;;9.60;99.90;;;;;;4787565;30;20055;-85
2022/01/17 11:42:43;;;;;;;44.90;6.72;;;9.60;99.90;;;;;;4772493;30;20136;-85
2022/01/17 11:45:21;;;;;;;44.88;7.65;;;9.70;99.90;;;;;;4787295;30;20387;-85
2022/01/17 11:47:50;;;;;;;41.45;6.93;;;9.70;99.90;;;;;;4788706;29;20051;-85
2022/01/17 11:50:28;;;;;;;44.75;7.57;;;9.70;99.90;;;;;;4788552;29;20055;-85
2022/01/17 11:52:58;;;;;;;43.17;6.82;;;9.70;99.90;;;;;;4787145;30;20398;-85
2022/01/17 11:55:45;;;;;;;45.37;6.33;;;9.70;99.90;;;;;;4787708;30;20425;-85
2022/01/17 11:58:29;;;;;;;36.67;6.55;;;9.80;99.90;;;;;;4788183;29;20292;-85
2022/01/17 12:01:00;;;;;;;49.92;8.07;;;9.80;99.90;;;;;;4772274;30;20560;-83
2022/01/17 12:03:27;;;;;;;34.92;6.22;;;9.90;99.90;;;;;;4788399;30;20054;-84
2022/01/17 12:05:53;;;;;;;39.70;6.82;;;10.00;99.90;;;;;;4787002;30;20047;-86
2022/01/17 12:08:21;;;;;;;37.88;6.72;;;10.00;99.90;;;;;;4787391;30;20067;-83
2022/01/17 12:10:51;;;;;;;38.90;7.75;;;10.20;99.90;;;;;;4787109;30;20051;-83
2022/01/17 12:13:22;;;;;;;32.95;6.60;;;10.20;99.90;;;;;;4788012;29;20137;-83
2022/01/17 12:16:11;;;;;;;42.92;7.75;;;10.10;99.90;;;;;;4788243;29;20069;-83
2022/01/17 12:18:48;;;;;;;33.78;6.18;;;10.10;99.90;;;;;;4788272;29;20066;-83
2022/01/17 12:21:29;;;;;;;50.65;6.90;;;10.10;99.90;;;;;;4786683;30;20054;-84
2022/01/17 12:24:22;;;;;;;40.60;6.85;;;10.20;99.90;;;;;;4788387;29;20086;-84
2022/01/17 12:26:54;;;;;;;38.58;6.63;;;10.30;99.90;;;;;;4787105;30;20066;-83
2022/01/17 12:29:47;;;;;;;41.42;6.45;;;10.30;99.90;;;;;;4786640;30;20115;-83
2022/01/17 12:32:39;;;;;;;38.90;6.00;;;10.30;99.90;;;;;;4787523;29;20384;-83
2022/01/17 12:35:05;;;;;;;48.40;7.82;;;10.40;99.90;;;;;;4788866;29;20120;-83
2022/01/17 12:37:47;;;;;;;48.40;7.68;;;10.40;99.90;;;;;;4787843;29;20051;-83
2022/01/17 12:40:13;;;;;;;39.58;7.55;;;10.40;99.90;;;;;;4786088;30;20062;-83
2022/01/17 12:43:07;;;;;;;37.00;6.78;;;10.40;99.90;;;;;;4787749;29;20059;-83
2022/01/17 12:45:43;;;;;;;33.10;6.70;;;10.40;99.90;;;;;;4786206;29;20055;-84
2022/01/17 12:48:11;;;;;;;38.58;6.15;;;10.40;99.90;;;;;;4785838;30;20051;-83
2022/01/17 12:50:38;;;;;;;32.17;6.53;;;10.30;99.90;;;;;;4771581;30;20066;-84
2022/01/17 12:53:05;;;;;;;39.80;6.00;;;10.30;99.90;;;;;;4771420;30;20059;-84
2022/01/17 12:55:44;;;;;;;36.45;7.10;;;10.30;99.90;;;;;;4786580;30;20051;-84
2022/01/17 12:58:20;;;;;;;33.00;6.70;;;10.30;99.90;;;;;;4756721;30;20145;-85
2022/01/17 13:00:51;;;;;;;38.10;6.72;;;10.20;99.90;;;;;;4787665;29;20116;-84
2022/01/17 13:03:17;;;;;;;40.88;7.32;;;10.20;99.90;;;;;;4786103;30;20059;-84
2022/01/17 13:05:44;;;;;;;39.85;6.53;;;10.20;99.90;;;;;;4786429;30;20051;-84
2022/01/17 13:08:09;;;;;;;41.33;7.28;;;10.10;99.90;;;;;;4771503;30;20051;-85
2022/01/17 13:10:35;;;;;;;38.40;6.88;;;10.10;99.90;;;;;;4787073;29;20057;-85
2022/01/17 13:13:01;;;;;;;42.80;7.13;;;10.10;99.90;;;;;;4786111;30;20055;-85
2022/01/17 13:15:27;;;;;;;45.55;6.90;;;10.10;99.90;;;;;;4786338;30;20055;-84
2022/01/17 13:17:53;;;;;;;42.45;7.50;;;10.10;99.90;;;;;;4771502;30;20074;-84